createdAt,value
2022-08-01T00:00:55.541Z,15.61
2022-08-01T00:01:55.591Z,15.78
2022-08-01T00:02:55.602Z,15.61
2022-08-01T00:03:55.545Z,15.61
2022-08-01T00:04:55.551Z,15.44
2022-08-01T00:05:55.556Z,15.61
2022-08-01T00:06:55.554Z,15.61
2022-08-01T00:07:55.538Z,15.78
2022-08-01T00:08:55.547Z,15.61
2022-08-01T00:09:55.546Z,15.78
2022-08-01T00:10:55.540Z,15.78
2022-08-01T00:11:59.454Z,15.44
2022-08-01T00:12:55.548Z,15.44
2022-08-01T00:13:55.546Z,15.61
2022-08-01T00:14:55.545Z,15.17
2022-08-01T00:15:55.542Z,15.17
2022-08-01T00:16:55.557Z,15.61
2022-08-01T00:17:55.553Z,15.61
2022-08-01T00:18:55.547Z,15.44
2022-08-01T00:19:55.550Z,15.61
2022-08-01T00:20:55.545Z,15.61
2022-08-01T00:21:55.545Z,15.61
2022-08-01T00:22:55.549Z,15.61
2022-08-01T00:23:55.549Z,15.61
2022-08-01T00:24:55.546Z,15.06
2022-08-01T00:25:55.560Z,15.61
2022-08-01T00:26:55.551Z,15.44
2022-08-01T00:27:55.573Z,15.61
2022-08-01T00:28:55.545Z,15.61
2022-08-01T00:30:10.574Z,15.44
2022-08-01T00:30:55.558Z,15.17
2022-08-01T00:31:55.549Z,15.61
2022-08-01T00:32:55.555Z,15.44
2022-08-01T00:33:55.551Z,15.28
2022-08-01T00:34:55.560Z,15.61
2022-08-01T00:35:55.566Z,15.44
2022-08-01T00:36:55.560Z,15.44
2022-08-01T00:37:55.558Z,15.44
2022-08-01T00:38:55.548Z,15.28
2022-08-01T00:39:55.554Z,15.28
2022-08-01T00:40:55.559Z,15.28
2022-08-01T00:41:59.581Z,15.17
2022-08-01T00:42:55.559Z,15.28
2022-08-01T00:43:55.559Z,15.28
2022-08-01T00:44:55.559Z,15.28
2022-08-01T00:45:55.552Z,15.28
2022-08-01T00:46:55.562Z,15.28
2022-08-01T00:47:55.626Z,15.44
2022-08-01T00:48:55.590Z,15.44
2022-08-01T00:49:55.564Z,15.44
2022-08-01T00:50:55.557Z,15.28
2022-08-01T00:51:55.559Z,15.28
2022-08-01T00:52:55.556Z,15.17
2022-08-01T00:53:55.566Z,14.89
2022-08-01T00:54:55.554Z,15.06
2022-08-01T00:55:55.565Z,15.17
2022-08-01T00:56:55.561Z,14.89
2022-08-01T00:58:01.950Z,15.06
2022-08-01T00:58:55.560Z,15.06
2022-08-01T00:59:55.567Z,14.89
2022-08-01T01:00:55.584Z,15.06
2022-08-01T01:01:55.974Z,14.78
2022-08-01T01:02:55.565Z,15.17
2022-08-01T01:03:58.885Z,15.06
2022-08-01T01:04:55.573Z,14.78
2022-08-01T01:05:55.578Z,15.17
2022-08-01T01:06:55.563Z,15.17
2022-08-01T01:07:55.567Z,14.78
2022-08-01T01:08:55.567Z,14.89
2022-08-01T01:09:55.570Z,14.89
2022-08-01T01:10:55.567Z,14.61
2022-08-01T01:11:55.569Z,14.89
2022-08-01T01:12:55.563Z,15.17
2022-08-01T01:13:55.574Z,15.17
2022-08-01T01:14:55.562Z,15.17
2022-08-01T01:15:55.571Z,14.78
2022-08-01T01:16:55.572Z,15.17
2022-08-01T01:17:55.575Z,14.89
2022-08-01T01:18:55.570Z,15.06
2022-08-01T01:19:55.576Z,15.06
2022-08-01T01:20:55.578Z,15.06
2022-08-01T01:21:55.577Z,15.17
2022-08-01T01:22:55.574Z,15.17
2022-08-01T01:23:55.571Z,15.28
2022-08-01T01:24:55.586Z,15.06
2022-08-01T01:25:55.579Z,15.17
2022-08-01T01:26:55.580Z,15.06
2022-08-01T01:27:55.583Z,15.17
2022-08-01T01:28:55.578Z,14.89
2022-08-01T01:29:59.109Z,14.78
2022-08-01T01:30:55.583Z,14.89
2022-08-01T01:31:55.586Z,15.17
2022-08-01T01:32:55.586Z,15.17
2022-08-01T01:33:55.586Z,15.06
2022-08-01T01:34:55.586Z,14.78
2022-08-01T01:35:55.582Z,15.17
2022-08-01T01:36:55.589Z,15.06
2022-08-01T01:37:55.590Z,15.06
2022-08-01T01:38:55.595Z,15.17
2022-08-01T01:39:55.598Z,15.17
2022-08-01T01:40:55.594Z,15.17
2022-08-01T01:41:55.590Z,15.06
2022-08-01T01:42:55.587Z,15.17
2022-08-01T01:43:55.593Z,15.17
2022-08-01T01:44:55.590Z,15.17
2022-08-01T01:45:55.593Z,15.17
2022-08-01T01:46:55.593Z,15.17
2022-08-01T01:47:55.588Z,14.61
2022-08-01T01:48:55.642Z,15.06
2022-08-01T01:49:55.590Z,15.06
2022-08-01T01:50:55.607Z,14.89
2022-08-01T01:52:02.864Z,14.89
2022-08-01T01:52:55.592Z,14.61
2022-08-01T01:53:55.610Z,14.78
2022-08-01T01:54:55.604Z,14.78
2022-08-01T01:55:55.605Z,15.06
2022-08-01T01:56:55.602Z,14.61
2022-08-01T01:57:55.604Z,15.06
2022-08-01T01:58:55.602Z,15.06
2022-08-01T01:59:55.607Z,14.89
2022-08-01T02:00:55.598Z,14.89
2022-08-01T02:01:58.941Z,14.89
2022-08-01T02:02:55.707Z,14.78
2022-08-01T02:03:55.602Z,14.61
2022-08-01T02:04:55.614Z,14.61
2022-08-01T02:05:55.615Z,15.06
2022-08-01T02:06:55.609Z,14.78
2022-08-01T02:07:58.350Z,15.06
2022-08-01T02:08:55.610Z,14.89
2022-08-01T02:09:55.618Z,14.89
2022-08-01T02:10:55.612Z,14.78
2022-08-01T02:12:09.516Z,14.78
2022-08-01T02:12:55.613Z,14.78
2022-08-01T02:13:55.612Z,14.89
2022-08-01T02:14:55.613Z,14.61
2022-08-01T02:15:59.605Z,14.78
2022-08-01T02:16:55.630Z,14.89
2022-08-01T02:17:55.619Z,15.17
2022-08-01T02:18:55.614Z,15.06
2022-08-01T02:19:55.620Z,14.89
2022-08-01T02:20:55.618Z,15.06
2022-08-01T02:21:55.628Z,15.06
2022-08-01T02:22:55.617Z,15.06
2022-08-01T02:23:55.621Z,15.06
2022-08-01T02:24:55.615Z,15.06
2022-08-01T02:26:08.585Z,14.89
2022-08-01T02:26:55.629Z,14.89
2022-08-01T02:27:55.616Z,14.78
2022-08-01T02:28:55.624Z,15.17
2022-08-01T02:29:55.621Z,14.89
2022-08-01T02:30:55.625Z,14.78
2022-08-01T02:31:55.628Z,14.61
2022-08-01T02:32:55.634Z,14.61
2022-08-01T02:33:55.629Z,14.78
2022-08-01T02:34:55.627Z,14.78
2022-08-01T02:36:29.238Z,14.61
2022-08-01T02:36:55.635Z,14.61
2022-08-01T02:37:55.635Z,14.78
2022-08-01T02:38:55.639Z,14.89
2022-08-01T02:39:55.644Z,14.44
2022-08-01T02:40:55.634Z,14.78
2022-08-01T02:41:55.633Z,14.78
2022-08-01T02:42:55.646Z,14.78
2022-08-01T02:43:55.637Z,14.61
2022-08-01T02:44:55.641Z,15.06
2022-08-01T02:45:55.643Z,14.78
2022-08-01T02:46:55.640Z,14.78
2022-08-01T02:47:55.645Z,14.78
2022-08-01T02:48:55.684Z,14.78
2022-08-01T02:49:55.641Z,14.61
2022-08-01T02:50:55.639Z,14.89
2022-08-01T02:51:55.662Z,14.78
2022-08-01T02:52:55.637Z,14.89
2022-08-01T02:53:55.647Z,14.89
2022-08-01T02:54:55.657Z,15.17
2022-08-01T02:55:55.670Z,15.06
2022-08-01T02:56:55.651Z,15.06
2022-08-01T02:57:56.951Z,14.89
2022-08-01T02:58:55.646Z,15.06
2022-08-01T02:59:55.999Z,14.61
2022-08-01T03:00:55.650Z,15.17
2022-08-01T03:01:55.732Z,15.06
2022-08-01T03:02:55.653Z,15.17
2022-08-01T03:03:55.650Z,15.17
2022-08-01T03:04:57.160Z,15.06
2022-08-01T03:05:55.652Z,14.78
2022-08-01T03:06:55.662Z,14.89
2022-08-01T03:07:55.658Z,15.06
2022-08-01T03:08:55.657Z,14.89
2022-08-01T03:09:55.653Z,15.06
2022-08-01T03:10:55.654Z,15.06
2022-08-01T03:11:55.657Z,15.06
2022-08-01T03:12:55.654Z,14.89
2022-08-01T03:13:55.667Z,15.06
2022-08-01T03:14:55.650Z,15.06
2022-08-01T03:15:55.667Z,15.17
2022-08-01T03:16:55.665Z,14.78
2022-08-01T03:17:55.662Z,14.78
2022-08-01T03:18:55.660Z,14.78
2022-08-01T03:19:55.664Z,14.89
2022-08-01T03:20:55.658Z,14.78
2022-08-01T03:21:55.664Z,14.61
2022-08-01T03:22:55.663Z,14.89
2022-08-01T03:23:55.661Z,14.78
2022-08-01T03:24:55.663Z,14.89
2022-08-01T03:25:55.668Z,14.78
2022-08-01T03:26:55.665Z,14.78
2022-08-01T03:27:55.665Z,14.78
2022-08-01T03:28:55.673Z,14.78
2022-08-01T03:29:55.678Z,14.89
2022-08-01T03:30:55.673Z,14.61
2022-08-01T03:31:55.672Z,14.89
2022-08-01T03:32:55.666Z,14.78
2022-08-01T03:33:55.674Z,14.78
2022-08-01T03:34:55.671Z,14.89
2022-08-01T03:35:55.669Z,14.78
2022-08-01T03:36:55.676Z,14.61
2022-08-01T03:38:15.081Z,14.78
2022-08-01T03:38:55.668Z,14.28
2022-08-01T03:39:55.669Z,14.78
2022-08-01T03:40:55.680Z,14.61
2022-08-01T03:41:56.862Z,14.78
2022-08-01T03:42:55.682Z,14.61
2022-08-01T03:43:55.683Z,14.78
2022-08-01T03:44:55.679Z,14.78
2022-08-01T03:45:55.677Z,14.78
2022-08-01T03:46:55.682Z,14.78
2022-08-01T03:47:55.678Z,14.78
2022-08-01T03:48:55.722Z,14.78
2022-08-01T03:49:55.682Z,14.61
2022-08-01T03:50:55.679Z,14.78
2022-08-01T03:51:55.685Z,14.78
2022-08-01T03:52:55.684Z,14.78
2022-08-01T03:53:55.673Z,14.61
2022-08-01T03:54:55.679Z,14.89
2022-08-01T03:55:55.686Z,15.06
2022-08-01T03:56:55.686Z,15.06
2022-08-01T03:57:55.685Z,14.78
2022-08-01T03:58:55.681Z,15.06
2022-08-01T03:59:55.679Z,14.78
2022-08-01T04:00:55.750Z,14.78
2022-08-01T04:01:55.735Z,14.89
2022-08-01T04:02:55.685Z,14.78
2022-08-01T04:03:55.682Z,15.17
2022-08-01T04:04:55.686Z,15.06
2022-08-01T04:05:55.685Z,15.17
2022-08-01T04:06:55.691Z,14.89
2022-08-01T04:07:55.695Z,15.17
2022-08-01T04:08:55.701Z,15.17
2022-08-01T04:09:55.686Z,15.06
2022-08-01T04:10:55.689Z,15.17
2022-08-01T04:11:55.693Z,15.06
2022-08-01T04:12:55.691Z,15.06
2022-08-01T04:13:55.696Z,15.17
2022-08-01T04:14:55.694Z,15.06
2022-08-01T04:15:55.694Z,15.06
2022-08-01T04:16:55.695Z,15.06
2022-08-01T04:17:55.690Z,15.06
2022-08-01T04:18:55.693Z,15.06
2022-08-01T04:19:55.697Z,15.17
2022-08-01T04:20:55.688Z,15.17
2022-08-01T04:21:55.696Z,14.78
2022-08-01T04:22:55.695Z,15.17
2022-08-01T04:23:55.708Z,15.17
2022-08-01T04:24:57.018Z,14.89
2022-08-01T04:25:55.704Z,15.06
2022-08-01T04:26:55.698Z,15.06
2022-08-01T04:27:55.703Z,15.17
2022-08-01T04:28:55.700Z,15.06
2022-08-01T04:29:55.702Z,15.06
2022-08-01T04:30:59.856Z,14.89
2022-08-01T04:31:55.698Z,14.89
2022-08-01T04:32:55.705Z,14.78
2022-08-01T04:33:55.704Z,15.17
2022-08-01T04:34:55.703Z,15.17
2022-08-01T04:36:01.212Z,15.17
2022-08-01T04:36:55.708Z,15.06
2022-08-01T04:37:55.706Z,15.17
2022-08-01T04:38:55.706Z,15.06
2022-08-01T04:39:55.698Z,14.89
2022-08-01T04:40:55.702Z,14.89
2022-08-01T04:41:55.708Z,15.17
2022-08-01T04:42:55.707Z,14.78
2022-08-01T04:43:55.710Z,15.06
2022-08-01T04:44:55.709Z,15.06
2022-08-01T04:45:55.703Z,14.89
2022-08-01T04:46:55.713Z,15.06
2022-08-01T04:47:55.708Z,15.06
2022-08-01T04:48:55.771Z,15.06
2022-08-01T04:49:55.710Z,14.89
2022-08-01T04:50:55.721Z,14.78
2022-08-01T04:51:55.711Z,14.89
2022-08-01T04:52:55.732Z,14.78
2022-08-01T04:53:55.712Z,14.61
2022-08-01T04:54:55.713Z,14.61
2022-08-01T04:55:55.714Z,14.89
2022-08-01T04:56:55.708Z,14.78
2022-08-01T04:57:55.713Z,14.89
2022-08-01T04:58:55.714Z,14.89
2022-08-01T04:59:55.713Z,14.89
2022-08-01T05:00:55.770Z,14.89
2022-08-01T05:01:55.716Z,15.17
2022-08-01T05:02:55.718Z,15.17
2022-08-01T05:03:55.713Z,15.17
2022-08-01T05:04:55.724Z,15.17
2022-08-01T05:05:55.723Z,15.17
2022-08-01T05:06:55.721Z,15.17
2022-08-01T05:07:55.727Z,15.17
2022-08-01T05:08:55.719Z,15.17
2022-08-01T05:09:55.724Z,15.17
2022-08-01T05:10:55.720Z,15.17
2022-08-01T05:11:55.721Z,15.17
2022-08-01T05:12:55.725Z,15.28
2022-08-01T05:13:55.724Z,15.06
2022-08-01T05:14:55.732Z,15.17
2022-08-01T05:15:55.729Z,15.44
2022-08-01T05:16:55.724Z,15.44
2022-08-01T05:17:55.732Z,15.44
2022-08-01T05:18:55.733Z,15.17
2022-08-01T05:19:55.723Z,15.61
2022-08-01T05:20:55.746Z,15.61
2022-08-01T05:21:59.256Z,15.61
2022-08-01T05:22:55.726Z,15.61
2022-08-01T05:23:55.721Z,15.61
2022-08-01T05:24:55.731Z,15.61
2022-08-01T05:25:57.577Z,15.61
2022-08-01T05:26:55.729Z,15.61
2022-08-01T05:27:55.729Z,16.06
2022-08-01T05:28:55.729Z,16.06
2022-08-01T05:29:55.729Z,16.72
2022-08-01T05:30:55.812Z,16.72
2022-08-01T05:31:55.759Z,16.56
2022-08-01T05:32:55.736Z,17.17
2022-08-01T05:33:55.739Z,17.5
2022-08-01T05:34:55.736Z,17.17
2022-08-01T05:35:55.722Z,18.28
2022-08-01T05:36:57.799Z,18.28
2022-08-01T05:37:55.727Z,17.67
2022-08-01T05:38:55.734Z,17.17
2022-08-01T05:39:55.727Z,16.22
2022-08-01T05:40:55.739Z,16.89
2022-08-01T05:41:55.732Z,17.94
2022-08-01T05:42:55.740Z,17.94
2022-08-01T05:43:55.744Z,17.83
2022-08-01T05:44:55.734Z,17.33
2022-08-01T05:45:55.744Z,17.5
2022-08-01T05:46:55.737Z,17.5
2022-08-01T05:47:55.744Z,17.33
2022-08-01T05:48:55.872Z,17.17
2022-08-01T05:49:55.739Z,17.17
2022-08-01T05:50:58.527Z,16.89
2022-08-01T05:51:55.728Z,17
2022-08-01T05:52:55.738Z,17
2022-08-01T05:53:55.743Z,17.17
2022-08-01T05:54:55.744Z,17.17
2022-08-01T05:55:55.751Z,17.17
2022-08-01T05:56:55.736Z,16.72
2022-08-01T05:57:55.754Z,16.72
2022-08-01T05:58:55.742Z,16.56
2022-08-01T05:59:55.738Z,16.56
2022-08-01T06:00:55.764Z,16.39
2022-08-01T06:01:55.789Z,16.89
2022-08-01T06:02:55.749Z,17.33
2022-08-01T06:03:55.745Z,17.33
2022-08-01T06:04:55.747Z,16.89
2022-08-01T06:05:55.739Z,17.17
2022-08-01T06:06:55.737Z,16.89
2022-08-01T06:07:55.746Z,16.56
2022-08-01T06:08:55.748Z,16.56
2022-08-01T06:09:55.751Z,16.56
2022-08-01T06:10:55.743Z,16.89
2022-08-01T06:11:55.743Z,17
2022-08-01T06:12:55.747Z,16.56
2022-08-01T06:13:55.745Z,16.72
2022-08-01T06:14:55.745Z,16.56
2022-08-01T06:15:55.742Z,16.39
2022-08-01T06:16:55.743Z,16.39
2022-08-01T06:17:55.737Z,16.56
2022-08-01T06:18:56.897Z,16.56
2022-08-01T06:19:55.742Z,17
2022-08-01T06:20:55.747Z,17
2022-08-01T06:21:55.760Z,17.5
2022-08-01T06:22:55.748Z,17.83
2022-08-01T06:23:55.747Z,17.5
2022-08-01T06:24:55.765Z,17.5
2022-08-01T06:25:55.755Z,17.94
2022-08-01T06:26:55.740Z,18.44
2022-08-01T06:27:55.739Z,17.83
2022-08-01T06:28:55.749Z,17.94
2022-08-01T06:29:55.753Z,19.44
2022-08-01T06:30:55.760Z,19.94
2022-08-01T06:31:55.749Z,19.28
2022-08-01T06:32:55.749Z,18.94
2022-08-01T06:33:55.749Z,18.44
2022-08-01T06:34:56.197Z,17.94
2022-08-01T06:35:55.751Z,17.94
2022-08-01T06:36:55.752Z,17.94
2022-08-01T06:37:55.751Z,18.44
2022-08-01T06:38:55.748Z,18.44
2022-08-01T06:39:55.741Z,20.72
2022-08-01T06:40:55.744Z,20.83
2022-08-01T06:41:55.746Z,22.39
2022-08-01T06:42:55.763Z,23.28
2022-08-01T06:43:55.743Z,22.94
2022-08-01T06:44:55.745Z,21.56
2022-08-01T06:45:55.762Z,22.39
2022-08-01T06:46:55.747Z,21.39
2022-08-01T06:47:55.756Z,22.56
2022-08-01T06:48:55.772Z,23.94
2022-08-01T06:49:55.754Z,24.89
2022-08-01T06:50:55.756Z,24.94
2022-08-01T06:51:55.756Z,24.72
2022-08-01T06:52:55.755Z,24.5
2022-08-01T06:53:55.749Z,24.89
2022-08-01T06:54:55.761Z,25.06
2022-08-01T06:55:55.756Z,24.39
2022-08-01T06:56:55.753Z,23.83
2022-08-01T06:57:55.760Z,23.11
2022-08-01T06:58:55.756Z,23.67
2022-08-01T06:59:55.753Z,24
2022-08-01T07:00:57.634Z,22.56
2022-08-01T07:01:55.749Z,22.22
2022-08-01T07:02:55.759Z,20.83
2022-08-01T07:03:55.751Z,20.56
2022-08-01T07:04:55.758Z,19.94
2022-08-01T07:05:55.750Z,19.56
2022-08-01T07:06:55.758Z,19.78
2022-08-01T07:07:55.753Z,20.83
2022-08-01T07:08:55.759Z,21.39
2022-08-01T07:09:55.759Z,21.89
2022-08-01T07:10:55.764Z,22.56
2022-08-01T07:11:55.758Z,22.56
2022-08-01T07:12:55.764Z,21.89
2022-08-01T07:13:55.756Z,21
2022-08-01T07:14:55.758Z,22.22
2022-08-01T07:15:55.760Z,22.94
2022-08-01T07:16:55.764Z,24
2022-08-01T07:17:55.773Z,24.56
2022-08-01T07:18:55.762Z,24.39
2022-08-01T07:19:55.764Z,24.89
2022-08-01T07:20:55.772Z,24.56
2022-08-01T07:21:55.766Z,25.22
2022-08-01T07:22:56.483Z,24.56
2022-08-01T07:23:55.947Z,24.17
2022-08-01T07:24:55.771Z,24
2022-08-01T07:25:58.134Z,21.39
2022-08-01T07:26:55.775Z,20.83
2022-08-01T07:27:55.772Z,23.67
2022-08-01T07:28:55.776Z,25.06
2022-08-01T07:29:55.787Z,25.61
2022-08-01T07:30:55.778Z,25.44
2022-08-01T07:31:55.783Z,26.56
2022-08-01T07:32:55.799Z,26.89
2022-08-01T07:33:55.792Z,25.78
2022-08-01T07:34:55.794Z,27
2022-08-01T07:35:55.791Z,25.78
2022-08-01T07:36:55.791Z,24.39
2022-08-01T07:37:55.787Z,23.28
2022-08-01T07:38:55.787Z,22.56
2022-08-01T07:39:55.800Z,24
2022-08-01T07:40:55.806Z,23.83
2022-08-01T07:42:05.724Z,22.94
2022-08-01T07:42:55.798Z,23.67
2022-08-01T07:43:58.754Z,23.11
2022-08-01T07:44:55.801Z,24
2022-08-01T07:45:55.807Z,23.83
2022-08-01T07:46:55.806Z,23.11
2022-08-01T07:47:55.804Z,23.83
2022-08-01T07:48:55.874Z,21.89
2022-08-01T07:49:55.806Z,21.72
2022-08-01T07:50:55.803Z,21.72
2022-08-01T07:52:02.796Z,21.56
2022-08-01T07:52:55.815Z,21.22
2022-08-01T07:53:55.810Z,21.39
2022-08-01T07:54:55.807Z,21
2022-08-01T07:55:55.808Z,21.22
2022-08-01T07:56:55.816Z,21
2022-08-01T07:57:55.813Z,21.39
2022-08-01T07:58:55.822Z,21.39
2022-08-01T07:59:55.822Z,22.39
2022-08-01T08:00:55.823Z,22.39
2022-08-01T08:01:55.928Z,21.39
2022-08-01T08:02:55.824Z,21.89
2022-08-01T08:03:55.818Z,21.89
2022-08-01T08:04:55.832Z,22.22
2022-08-01T08:05:59.058Z,22.56
2022-08-01T08:06:55.832Z,22.94
2022-08-01T08:07:55.829Z,21.39
2022-08-01T08:08:55.833Z,21.72
2022-08-01T08:09:55.824Z,21.89
2022-08-01T08:10:55.837Z,22.39
2022-08-01T08:11:55.837Z,22.22
2022-08-01T08:12:55.840Z,21.56
2022-08-01T08:13:55.836Z,21.39
2022-08-01T08:14:55.839Z,21.22
2022-08-01T08:15:55.840Z,20.83
2022-08-01T08:16:55.840Z,21.22
2022-08-01T08:17:55.839Z,21.39
2022-08-01T08:18:55.838Z,21.39
2022-08-01T08:19:55.843Z,21
2022-08-01T08:20:55.841Z,20.83
2022-08-01T08:21:55.847Z,20.83
2022-08-01T08:22:55.871Z,21.39
2022-08-01T08:23:55.844Z,21.89
2022-08-01T08:24:55.835Z,22.22
2022-08-01T08:25:55.844Z,21.89
2022-08-01T08:26:55.838Z,21.39
2022-08-01T08:27:55.844Z,21.22
2022-08-01T08:28:55.847Z,21.72
2022-08-01T08:29:55.845Z,22.56
2022-08-01T08:30:55.849Z,22.39
2022-08-01T08:31:56.978Z,22.94
2022-08-01T08:32:55.853Z,23.11
2022-08-01T08:33:55.849Z,23.11
2022-08-01T08:34:55.858Z,23.67
2022-08-01T08:35:55.848Z,22.94
2022-08-01T08:36:55.860Z,23.44
2022-08-01T08:37:56.000Z,23.44
2022-08-01T08:38:55.869Z,23.83
2022-08-01T08:39:55.852Z,24
2022-08-01T08:40:55.873Z,23.83
2022-08-01T08:41:55.852Z,24
2022-08-01T08:42:55.866Z,23.83
2022-08-01T08:43:55.863Z,24
2022-08-01T08:44:55.871Z,24
2022-08-01T08:45:59.931Z,23.44
2022-08-01T08:46:55.864Z,23.83
2022-08-01T08:47:55.863Z,24
2022-08-01T08:48:55.920Z,23.44
2022-08-01T08:49:55.875Z,23.28
2022-08-01T08:50:55.875Z,23.83
2022-08-01T08:51:55.875Z,24.56
2022-08-01T08:52:55.876Z,25.22
2022-08-01T08:53:55.868Z,24.89
2022-08-01T08:54:55.874Z,24.72
2022-08-01T08:55:56.739Z,24
2022-08-01T08:56:55.877Z,24
2022-08-01T08:57:55.880Z,23.28
2022-08-01T08:58:55.886Z,22.94
2022-08-01T08:59:55.885Z,23
2022-08-01T09:00:55.883Z,23.5
2022-08-01T09:01:55.885Z,24
2022-08-01T09:02:55.912Z,25.22
2022-08-01T09:03:55.892Z,26.17
2022-08-01T09:04:55.891Z,26.17
2022-08-01T09:05:55.891Z,26.17
2022-08-01T09:06:56.026Z,25.61
2022-08-01T09:07:55.888Z,25.44
2022-08-01T09:08:55.891Z,25.22
2022-08-01T09:09:55.891Z,25.78
2022-08-01T09:10:55.898Z,25.78
2022-08-01T09:11:57.129Z,25.44
2022-08-01T09:12:55.897Z,24.17
2022-08-01T09:13:55.899Z,24.5
2022-08-01T09:14:55.896Z,25.22
2022-08-01T09:15:55.909Z,25.78
2022-08-01T09:16:55.905Z,25.78
2022-08-01T09:17:55.899Z,25.78
2022-08-01T09:18:55.908Z,26.56
2022-08-01T09:19:57.628Z,27.44
2022-08-01T09:20:55.899Z,26.33
2022-08-01T09:21:55.901Z,25.78
2022-08-01T09:22:55.910Z,26.17
2022-08-01T09:23:55.900Z,25.78
2022-08-01T09:24:55.909Z,26.17
2022-08-01T09:25:56.700Z,26.56
2022-08-01T09:26:55.911Z,27.17
2022-08-01T09:27:55.904Z,26.56
2022-08-01T09:28:55.908Z,26.72
2022-08-01T09:30:00.517Z,26.89
2022-08-01T09:30:55.907Z,25.78
2022-08-01T09:31:55.911Z,25.61
2022-08-01T09:32:55.923Z,26.56
2022-08-01T09:33:55.911Z,25.78
2022-08-01T09:34:55.921Z,25.61
2022-08-01T09:35:55.907Z,25.61
2022-08-01T09:36:55.912Z,26
2022-08-01T09:37:55.923Z,25.78
2022-08-01T09:38:55.917Z,26.89
2022-08-01T09:39:55.918Z,26.94
2022-08-01T09:40:57.992Z,26.72
2022-08-01T09:41:56.441Z,25.78
2022-08-01T09:42:55.910Z,25.22
2022-08-01T09:43:55.915Z,25.61
2022-08-01T09:44:55.917Z,26.17
2022-08-01T09:45:55.919Z,26.89
2022-08-01T09:46:55.932Z,27.17
2022-08-01T09:47:55.906Z,26.89
2022-08-01T09:48:55.950Z,26.94
2022-08-01T09:49:55.941Z,26.94
2022-08-01T09:50:55.912Z,25.78
2022-08-01T09:51:59.284Z,25.22
2022-08-01T09:52:55.917Z,25.78
2022-08-01T09:53:55.920Z,26.17
2022-08-01T09:54:55.925Z,26.89
2022-08-01T09:55:55.917Z,26.89
2022-08-01T09:56:55.915Z,27.44
2022-08-01T09:57:55.916Z,26.94
2022-08-01T09:58:59.765Z,26.72
2022-08-01T09:59:58.614Z,26.33
2022-08-01T10:00:55.925Z,26.33
2022-08-01T10:01:55.928Z,25.78
2022-08-01T10:02:55.964Z,25.78
2022-08-01T10:03:55.946Z,27.17
2022-08-01T10:04:59.929Z,27.44
2022-08-01T10:05:55.967Z,28
2022-08-01T10:06:55.915Z,27.44
2022-08-01T10:07:55.924Z,27.17
2022-08-01T10:08:55.924Z,26.33
2022-08-01T10:09:55.914Z,27.44
2022-08-01T10:10:58.876Z,27.78
2022-08-01T10:11:55.918Z,26.89
2022-08-01T10:12:55.923Z,26
2022-08-01T10:13:55.919Z,26.89
2022-08-01T10:14:55.922Z,26.89
2022-08-01T10:15:55.921Z,26.56
2022-08-01T10:16:58.204Z,26.89
2022-08-01T10:17:57.161Z,27.17
2022-08-01T10:18:55.920Z,26.33
2022-08-01T10:19:58.107Z,25.78
2022-08-01T10:20:56.554Z,24.67
2022-08-01T10:21:58.702Z,24.89
2022-08-01T10:22:55.921Z,24.67
2022-08-01T10:23:58.761Z,25.22
2022-08-01T10:24:55.920Z,25.44
2022-08-01T10:25:55.956Z,25.06
2022-08-01T10:26:55.928Z,24.67
2022-08-01T10:27:55.929Z,25.22
2022-08-01T10:28:55.929Z,25.61
2022-08-01T10:30:00.074Z,25.78
2022-08-01T10:30:55.927Z,25.61
2022-08-01T10:31:55.939Z,25.78
2022-08-01T10:32:55.932Z,26.22
2022-08-01T10:33:55.934Z,26.89
2022-08-01T10:34:55.931Z,27.44
2022-08-01T10:35:55.962Z,26.89
2022-08-01T10:36:55.940Z,26.94
2022-08-01T10:37:55.934Z,27.5
2022-08-01T10:38:55.942Z,27.17
2022-08-01T10:40:08.756Z,26.94
2022-08-01T10:40:55.948Z,26.33
2022-08-01T10:41:55.974Z,26
2022-08-01T10:42:55.950Z,26
2022-08-01T10:43:55.963Z,25.44
2022-08-01T10:44:55.959Z,25.22
2022-08-01T10:45:55.960Z,25.44
2022-08-01T10:46:55.960Z,26
2022-08-01T10:47:55.962Z,25.78
2022-08-01T10:48:56.010Z,25.44
2022-08-01T10:49:55.962Z,25.22
2022-08-01T10:50:55.968Z,24.89
2022-08-01T10:51:55.965Z,25.44
2022-08-01T10:52:55.968Z,26
2022-08-01T10:53:56.128Z,25.78
2022-08-01T10:54:55.972Z,25.61
2022-08-01T10:55:55.971Z,25.44
2022-08-01T10:56:55.975Z,25.44
2022-08-01T10:57:55.967Z,26.17
2022-08-01T10:58:55.972Z,25.78
2022-08-01T10:59:59.552Z,26
2022-08-01T11:00:56.008Z,25.44
2022-08-01T11:01:56.045Z,26.72
2022-08-01T11:02:55.994Z,26.94
2022-08-01T11:03:58.289Z,26.94
2022-08-01T11:04:55.983Z,27.39
2022-08-01T11:05:55.992Z,26.72
2022-08-01T11:06:55.992Z,26.56
2022-08-01T11:07:55.993Z,26.94
2022-08-01T11:08:56.000Z,26.89
2022-08-01T11:09:55.984Z,26.56
2022-08-01T11:10:55.989Z,26.56
2022-08-01T11:11:55.988Z,26.94
2022-08-01T11:12:56.005Z,27.5
2022-08-01T11:13:55.983Z,27.39
2022-08-01T11:14:56.153Z,27.72
2022-08-01T11:15:55.987Z,28.11
2022-08-01T11:16:55.997Z,28.56
2022-08-01T11:17:55.985Z,28.11
2022-08-01T11:18:55.991Z,27.5
2022-08-01T11:19:55.991Z,27.72
2022-08-01T11:20:55.997Z,28.11
2022-08-01T11:21:58.321Z,28.11
2022-08-01T11:22:56.004Z,26.72
2022-08-01T11:23:56.008Z,27.17
2022-08-01T11:24:56.013Z,27.5
2022-08-01T11:26:04.061Z,26.94
2022-08-01T11:26:56.008Z,26.72
2022-08-01T11:27:56.009Z,27.17
2022-08-01T11:29:18.187Z,26.33
2022-08-01T11:29:56.010Z,26.17
2022-08-01T11:30:56.033Z,26.56
2022-08-01T11:31:56.020Z,26.56
2022-08-01T11:33:10.261Z,26.94
2022-08-01T11:33:58.267Z,27.17
2022-08-01T11:34:56.016Z,26.56
2022-08-01T11:35:56.018Z,26.94
2022-08-01T11:36:58.694Z,27.5
2022-08-01T11:37:56.032Z,28.11
2022-08-01T11:38:56.033Z,26.94
2022-08-01T11:39:56.029Z,27.39
2022-08-01T11:40:56.025Z,27.5
2022-08-01T11:41:56.032Z,28.11
2022-08-01T11:42:56.040Z,27.5
2022-08-01T11:43:56.039Z,27.5
2022-08-01T11:44:56.037Z,26.94
2022-08-01T11:45:56.046Z,26.17
2022-08-01T11:46:56.043Z,27.17
2022-08-01T11:47:56.040Z,26.94
2022-08-01T11:48:56.072Z,27.39
2022-08-01T11:49:56.405Z,27.39
2022-08-01T11:50:56.041Z,27.5
2022-08-01T11:51:56.042Z,27.5
2022-08-01T11:52:56.036Z,27.17
2022-08-01T11:53:56.054Z,26.33
2022-08-01T11:54:56.041Z,26.72
2022-08-01T11:55:56.047Z,27.5
2022-08-01T11:56:56.043Z,27.5
2022-08-01T11:57:56.052Z,28.11
2022-08-01T11:58:56.058Z,27.39
2022-08-01T12:00:03.025Z,27.5
2022-08-01T12:00:56.058Z,28.11
2022-08-01T12:01:56.083Z,27.94
2022-08-01T12:02:56.155Z,28.11
2022-08-01T12:03:56.099Z,27.5
2022-08-01T12:04:56.068Z,26.56
2022-08-01T12:05:56.065Z,26.94
2022-08-01T12:06:56.063Z,26.94
2022-08-01T12:07:56.063Z,27.17
2022-08-01T12:08:56.063Z,27.72
2022-08-01T12:09:56.071Z,28.11
2022-08-01T12:11:01.966Z,28.11
2022-08-01T12:11:56.090Z,27.39
2022-08-01T12:12:56.080Z,27.72
2022-08-01T12:13:56.088Z,28.11
2022-08-01T12:14:56.086Z,26.94
2022-08-01T12:15:56.867Z,26.72
2022-08-01T12:16:56.082Z,26.72
2022-08-01T12:17:57.837Z,26.83
2022-08-01T12:18:56.081Z,27.17
2022-08-01T12:19:56.084Z,27.5
2022-08-01T12:20:57.195Z,27.39
2022-08-01T12:21:56.190Z,27.17
2022-08-01T12:22:56.094Z,27.17
2022-08-01T12:23:56.087Z,27.5
2022-08-01T12:24:56.089Z,27.72
2022-08-01T12:25:56.094Z,28.33
2022-08-01T12:26:56.090Z,28.33
2022-08-01T12:27:56.949Z,28.67
2022-08-01T12:28:56.093Z,29.11
2022-08-01T12:29:56.090Z,28.56
2022-08-01T12:30:56.089Z,28.89
2022-08-01T12:31:56.097Z,28.33
2022-08-01T12:32:56.098Z,27.72
2022-08-01T12:33:56.093Z,28.56
2022-08-01T12:34:56.100Z,28.89
2022-08-01T12:35:56.098Z,29.28
2022-08-01T12:36:56.100Z,28.33
2022-08-01T12:37:56.103Z,28.33
2022-08-01T12:38:56.106Z,28.67
2022-08-01T12:39:56.099Z,28.33
2022-08-01T12:40:56.102Z,28.33
2022-08-01T12:41:56.105Z,28.33
2022-08-01T12:42:56.095Z,28.33
2022-08-01T12:43:56.109Z,27.72
2022-08-01T12:44:56.108Z,27.72
2022-08-01T12:45:56.607Z,27.72
2022-08-01T12:46:56.106Z,27.72
2022-08-01T12:47:56.116Z,28.11
2022-08-01T12:48:56.133Z,28.33
2022-08-01T12:49:56.119Z,28.11
2022-08-01T12:50:56.112Z,28.33
2022-08-01T12:51:56.997Z,28.67
2022-08-01T12:52:56.116Z,28.67
2022-08-01T12:53:56.113Z,28.33
2022-08-01T12:54:56.122Z,28.67
2022-08-01T12:55:58.836Z,28.33
2022-08-01T12:56:56.125Z,28.33